createdAt,value
2023-04-03T00:03:27.532Z,100.00
2023-04-03T00:08:24.033Z,100.00
2023-04-03T00:13:20.436Z,100.00
2023-04-03T00:18:16.868Z,100.00
2023-04-03T00:23:13.298Z,100.00
2023-04-03T00:28:09.852Z,100.00
2023-04-03T00:33:06.358Z,100.00
2023-04-03T00:38:02.784Z,100.00
2023-04-03T00:43:00.437Z,100.00
2023-04-03T00:47:57.820Z,100.00
2023-04-03T00:52:55.191Z,100.00
2023-04-03T00:57:53.167Z,100.00
2023-04-03T01:08:20.061Z,100.00
2023-04-03T01:13:23.257Z,100.00
2023-04-03T01:18:20.385Z,100.00
2023-04-03T01:23:32.652Z,100.00
2023-04-03T01:28:32.486Z,100.00
2023-04-03T01:33:28.965Z,100.00
2023-04-03T01:38:25.388Z,100.00
2023-04-03T01:43:21.770Z,100.00
2023-04-03T01:48:18.223Z,100.00
2023-04-03T01:53:14.736Z,100.00
2023-04-03T01:58:11.164Z,100.00
2023-04-03T02:03:07.815Z,100.00
2023-04-03T02:08:04.740Z,100.00
2023-04-03T02:13:01.427Z,100.00
2023-04-03T02:17:57.990Z,100.00
2023-04-03T02:22:54.501Z,100.00
2023-04-03T02:27:51.065Z,100.00
2023-04-03T02:32:47.908Z,100.00
2023-04-03T02:37:44.335Z,100.00
2023-04-03T02:42:41.061Z,100.00
2023-04-03T02:47:37.499Z,100.00
2023-04-03T02:52:34.064Z,100.00
2023-04-03T02:57:30.840Z,100.00
2023-04-03T03:02:27.405Z,100.00
2023-04-03T03:07:23.929Z,100.00
2023-04-03T03:12:22.585Z,100.00
2023-04-03T03:17:19.288Z,100.00
2023-04-03T03:22:15.967Z,100.00
2023-04-03T03:27:13.075Z,100.00
2023-04-03T03:32:09.663Z,100.00
2023-04-03T03:37:06.094Z,100.00
2023-04-03T03:42:02.683Z,100.00
2023-04-03T03:46:59.395Z,100.00
2023-04-03T03:51:56.136Z,100.00
2023-04-03T03:56:53.886Z,100.00
2023-04-03T04:01:50.335Z,100.00
2023-04-03T04:06:47.016Z,100.00
2023-04-03T04:11:43.509Z,100.00
2023-04-03T04:16:40.250Z,100.00
2023-04-03T04:21:36.706Z,100.00
2023-04-03T04:26:33.125Z,100.00
2023-04-03T04:31:29.678Z,100.00
2023-04-03T04:36:26.497Z,100.00
2023-04-03T04:41:24.015Z,100.00
2023-04-03T04:46:20.779Z,100.00
2023-04-03T04:51:17.227Z,100.00
2023-04-03T04:56:13.719Z,100.00
2023-04-03T05:01:11.414Z,100.00
2023-04-03T05:06:08.213Z,100.00
2023-04-03T05:11:04.682Z,100.00
2023-04-03T05:16:01.104Z,100.00
2023-04-03T05:20:58.675Z,100.00
2023-04-03T05:25:55.245Z,100.00
2023-04-03T05:30:56.698Z,100.00
2023-04-03T05:35:54.110Z,100.00
2023-04-03T05:40:50.706Z,100.00
2023-04-03T05:45:48.652Z,100.00
2023-04-03T05:50:45.166Z,100.00
2023-04-03T05:55:41.565Z,100.00
2023-04-03T06:00:37.988Z,100.00
2023-04-03T06:05:34.405Z,100.00
2023-04-03T06:10:31.367Z,100.00
2023-04-03T06:15:28.177Z,100.00
2023-04-03T06:20:25.339Z,100.00
2023-04-03T06:25:22.045Z,100.00
2023-04-03T06:30:18.562Z,100.00
2023-04-03T06:35:15.168Z,100.00
2023-04-03T06:40:23.155Z,100.00
2023-04-03T06:45:20.493Z,100.00
2023-04-03T06:50:17.001Z,100.00
2023-04-03T06:55:13.522Z,100.00
2023-04-03T07:00:11.812Z,100.00
2023-04-03T07:05:09.870Z,100.00
2023-04-03T07:10:07.480Z,100.00
2023-04-03T07:15:05.139Z,100.00
2023-04-03T07:20:01.589Z,100.00
2023-04-03T07:24:58.050Z,100.00
2023-04-03T07:29:55.603Z,100.00
2023-04-03T07:34:53.017Z,100.00
2023-04-03T07:39:49.874Z,100.00
2023-04-03T07:44:46.585Z,100.00
2023-04-03T07:49:44.732Z,100.00
2023-04-03T07:54:41.183Z,100.00
2023-04-03T07:59:37.618Z,100.00
2023-04-03T08:04:34.204Z,100.00
2023-04-03T08:09:30.732Z,100.00
2023-04-03T08:14:27.445Z,100.00
2023-04-03T08:19:26.626Z,100.00
2023-04-03T08:24:23.417Z,100.00
2023-04-03T08:29:19.880Z,100.00
2023-04-03T08:34:16.400Z,100.00
2023-04-03T08:39:13.593Z,100.00
2023-04-03T08:44:17.331Z,100.00
2023-04-03T08:49:25.651Z,100.00
2023-04-03T08:54:29.557Z,100.00
2023-04-03T08:59:30.757Z,100.00
2023-04-03T09:04:28.810Z,100.00
2023-04-03T09:09:42.944Z,100.00
2023-04-03T09:14:42.024Z,100.00
2023-04-03T09:20:21.292Z,100.00
2023-04-03T09:25:22.460Z,100.00
2023-04-03T09:30:24.580Z,100.00
2023-04-03T09:35:39.960Z,100.00
2023-04-03T09:40:46.564Z,100.00
2023-04-03T09:45:43.706Z,100.00
2023-04-03T09:51:00.281Z,100.00
2023-04-03T09:55:57.383Z,100.00
2023-04-03T10:00:59.752Z,100.00
2023-04-03T10:05:56.321Z,89.08
2023-04-03T10:11:17.869Z,88.95
2023-04-03T10:16:18.514Z,78.48
2023-04-03T10:21:47.754Z,73.23
2023-04-03T10:27:03.670Z,66.87
2023-04-03T10:32:26.901Z,67.35
2023-04-03T10:37:50.620Z,60.27
2023-04-03T10:43:27.838Z,52.86
2023-04-03T10:48:40.943Z,48.78
2023-04-03T10:53:46.234Z,59.34
2023-04-03T10:58:58.877Z,50.12
2023-04-03T11:04:00.181Z,52.39
2023-04-03T11:09:28.091Z,62.49
2023-04-03T11:14:35.953Z,70.65
2023-04-03T11:19:50.867Z,59.07
2023-04-03T11:25:07.432Z,70.42
2023-04-03T11:30:08.923Z,59.63
2023-04-03T11:35:08.288Z,69.60
2023-04-03T11:40:16.542Z,79.52
2023-04-03T11:45:27.985Z,90.82
2023-04-03T11:50:42.657Z,89.13
2023-04-03T11:55:46.608Z,88.11
2023-04-03T12:00:51.937Z,65.33
2023-04-03T12:05:48.406Z,70.97
2023-04-03T12:11:10.867Z,54.96
2023-04-03T12:16:19.736Z,46.45
2023-04-03T12:21:22.301Z,43.83
2023-04-03T12:26:18.669Z,40.61
2023-04-03T12:31:16.067Z,34.81
2023-04-03T12:36:19.348Z,34.55
2023-04-03T12:41:28.723Z,32.97
2023-04-03T12:46:33.614Z,30.02
2023-04-03T12:51:40.995Z,32.96
2023-04-03T12:56:37.447Z,38.13
2023-04-03T13:01:33.925Z,31.74
2023-04-03T13:06:39.846Z,35.32
2023-04-03T13:11:41.694Z,32.46
2023-04-03T13:16:42.242Z,32.39
2023-04-03T13:21:38.834Z,34.79
2023-04-03T13:26:35.754Z,30.40
2023-04-03T13:31:35.302Z,32.39
2023-04-03T13:36:41.357Z,27.41
2023-04-03T13:41:40.383Z,31.84
2023-04-03T13:46:36.822Z,29.72
2023-04-03T13:51:33.240Z,26.45
2023-04-03T13:56:42.876Z,27.84
2023-04-03T14:01:55.782Z,29.69
2023-04-03T14:06:53.217Z,28.67
2023-04-03T14:11:52.561Z,27.79
2023-04-03T14:16:54.272Z,26.52
2023-04-03T14:21:51.909Z,26.88
2023-04-03T14:26:51.097Z,29.70
2023-04-03T14:31:48.186Z,29.65
2023-04-03T14:36:45.780Z,28.44
2023-04-03T14:41:42.410Z,30.36
2023-04-03T14:46:55.700Z,29.04
2023-04-03T14:51:53.626Z,28.57
2023-04-03T14:56:50.319Z,29.16
2023-04-03T15:01:47.213Z,30.67
2023-04-03T15:06:44.137Z,37.34
2023-04-03T15:11:40.528Z,38.02
2023-04-03T15:16:37.079Z,40.43
2023-04-03T15:21:33.538Z,36.08
2023-04-03T15:26:30.481Z,38.25
2023-04-03T15:31:27.040Z,36.86
2023-04-03T15:41:25.989Z,47.01
2023-04-03T15:46:22.659Z,50.22
2023-04-03T15:51:19.287Z,41.76
2023-04-03T15:56:15.914Z,35.97
2023-04-03T16:01:12.709Z,38.12
2023-04-03T16:06:09.088Z,38.20
2023-04-03T16:11:05.646Z,47.10
2023-04-03T16:16:02.925Z,51.76
2023-04-03T16:20:59.988Z,54.54
2023-04-03T16:25:56.869Z,55.00
2023-04-03T16:30:53.453Z,50.27
2023-04-03T16:35:51.603Z,52.61
2023-04-03T16:40:49.311Z,54.74
2023-04-03T16:45:45.928Z,53.34
2023-04-03T16:50:42.415Z,59.00
2023-04-03T16:55:40.514Z,61.29
2023-04-03T17:00:37.490Z,65.94
2023-04-03T17:05:34.325Z,61.27
2023-04-03T17:10:31.410Z,63.06
2023-04-03T17:15:28.063Z,66.68
2023-04-03T17:20:24.702Z,76.72
2023-04-03T17:25:21.249Z,83.72
2023-04-03T17:30:17.983Z,87.77
2023-04-03T17:35:14.613Z,87.77
2023-04-03T17:40:14.143Z,82.57
2023-04-03T17:45:10.958Z,84.66
2023-04-03T17:50:08.298Z,90.44
2023-04-03T17:55:05.289Z,88.38
2023-04-03T18:00:01.794Z,91.79
2023-04-03T18:04:58.437Z,93.49
2023-04-03T18:09:57.135Z,92.31
2023-04-03T18:14:54.648Z,98.53
2023-04-03T18:19:51.864Z,97.46
2023-04-03T18:24:50.809Z,100.00
2023-04-03T18:29:54.192Z,100.00
2023-04-03T18:34:51.257Z,100.00
2023-04-03T18:39:48.036Z,100.00
2023-04-03T18:44:47.912Z,100.00
2023-04-03T18:49:44.862Z,100.00
2023-04-03T18:54:42.755Z,100.00
2023-04-03T18:59:39.219Z,100.00
2023-04-03T19:04:36.481Z,100.00
2023-04-03T19:09:33.354Z,100.00
2023-04-03T19:14:29.920Z,100.00
2023-04-03T19:19:26.358Z,100.00
2023-04-03T19:24:22.785Z,100.00
2023-04-03T19:29:19.364Z,100.00
2023-04-03T19:34:15.962Z,100.00
2023-04-03T19:39:15.725Z,100.00
2023-04-03T19:44:12.753Z,100.00
2023-04-03T19:49:10.422Z,100.00
2023-04-03T19:54:07.170Z,100.00
2023-04-03T19:59:03.891Z,100.00
2023-04-03T20:04:00.799Z,100.00
2023-04-03T20:08:57.549Z,100.00
2023-04-03T20:13:55.598Z,100.00
2023-04-03T20:18:54.939Z,100.00
2023-04-03T20:23:51.801Z,100.00
2023-04-03T20:28:48.265Z,100.00
2023-04-03T20:33:46.011Z,100.00
2023-04-03T20:38:42.517Z,100.00
2023-04-03T20:43:39.855Z,100.00
2023-04-03T20:48:36.769Z,100.00
2023-04-03T20:53:33.233Z,100.00
2023-04-03T20:58:32.968Z,100.00
2023-04-03T21:03:37.544Z,100.00
2023-04-03T21:09:11.954Z,100.00
2023-04-03T21:14:50.027Z,100.00
2023-04-03T21:19:57.050Z,100.00
2023-04-03T21:24:57.986Z,100.00
2023-04-03T21:29:59.876Z,100.00
2023-04-03T21:35:09.735Z,100.00
2023-04-03T21:40:15.263Z,100.00
2023-04-03T21:45:16.263Z,100.00
2023-04-03T21:50:18.004Z,100.00
2023-04-03T21:55:18.164Z,100.00
2023-04-03T22:00:22.045Z,100.00
2023-04-03T22:05:21.474Z,100.00
2023-04-03T22:10:21.549Z,100.00
2023-04-03T22:15:20.655Z,100.00
2023-04-03T22:20:19.522Z,100.00
2023-04-03T22:25:20.750Z,100.00
2023-04-03T22:30:27.345Z,100.00
2023-04-03T22:35:27.490Z,100.00
2023-04-03T22:40:29.016Z,100.00
2023-04-03T22:45:25.764Z,100.00
2023-04-03T22:50:36.815Z,100.00
2023-04-03T22:55:38.669Z,100.00
2023-04-03T23:00:45.819Z,100.00
2023-04-03T23:05:43.910Z,100.00
2023-04-03T23:10:44.594Z,100.00
2023-04-03T23:15:53.648Z,100.00
2023-04-03T23:20:55.584Z,100.00
2023-04-03T23:26:05.228Z,100.00
2023-04-03T23:31:10.534Z,100.00
2023-04-03T23:36:13.455Z,100.00
2023-04-03T23:41:22.897Z,100.00
2023-04-03T23:46:22.548Z,100.00
2023-04-03T23:51:27.758Z,100.00
2023-04-03T23:56:33.584Z,100.00
